Domov               UVHVVR             MKGP            O straneh              
ZDRAVSTVENO VARSTVO RASTLIN
  MREŽA AGROMET. POSTAJ
 ► PROGNOSTIČNA OBVESTILA
AGROMETEOROLOŠKI PODATKI -
ARSO
OBVLADOVANJE TVEGANJ ZARADI
NEUGODNIH VREMENSKIH RAZMER
  ► NARAVNE NESREČE
  ► SUŠA/MOČA
  ► NAMAKANJE
  ► ŽLED (gozdarstvo)
KARTOGRAFSKI PRIKAZI
SPLETNE POVEZAVE
PROJEKTI IN PUBLIKACIJE

AGROMETEOROLOŠKA MREŽA: VREMENSKE POSTAJE IN FENOLOŠKA OPAZOVANJA

Pregled podatkov za lokacijo Pohorski dvor, meteorološka postaja 27262

Pregled senzorjev na lokaciji

ID Ime Zadnja
vrednost
Datum
zadnje
spremembe
Tip
senzorja
959 Relativna vlaga 2 m (% RH) 91,64 % RH 21.10.2017 01:01 Generic 0 - 100 %
960 Omočenost lista (U) 10 U 21.10.2017 01:01 A730WET
961 Padavine 0.2 mm (mm) 0 mm 21.10.2017 01:00 Generic
963 Temperatura 2 m ( °C) 8,33 °C 21.10.2017 01:01 Generic -40 - +60 °C

Pregled podatkov zadnjih 24 ur

Zap.
št.
Datum in čas Pohorski dvor
Omočenost
lista
Padavine
0.2
mm
Relativna
vlaga
2
m
Temperatura
2
m
0 21.10.2017 00:00 10 0 91,6 8,38
1 20.10.2017 23:30 10 0 90,41 8,79
2 20.10.2017 23:00 10 0 90,83 9,39
3 20.10.2017 22:30 10 0 90,72 9,3
4 20.10.2017 22:00 10 0 90,09 9,04
5 20.10.2017 21:30 10 0 89,15 9,83
6 20.10.2017 21:00 10 0 88,68 10,12
7 20.10.2017 20:30 10 0 87,89 10,27
8 20.10.2017 20:00 10 0 87,08 10,26
9 20.10.2017 19:30 10 0 83,87 11,23
10 20.10.2017 19:00 7,97 0 82,28 11,63
11 20.10.2017 18:30 1,57 0 77,64 12,79
12 20.10.2017 18:00 5,23 0 78,88 13,01
13 20.10.2017 17:30 4,83 0 79,36 12,91
14 20.10.2017 17:00 0,23 0 70,77 14,99
15 20.10.2017 16:30 0 0 62,73 17,19
16 20.10.2017 16:00 0 0 52,84 19,91
17 20.10.2017 15:30 0 0 45,45 20,9
18 20.10.2017 15:00 0 0 43,53 21,45
19 20.10.2017 14:30 0 0 40,76 21,94
20 20.10.2017 14:00 0 0 41,55 21,91
21 20.10.2017 13:30 0 0 41,88 21,25
22 20.10.2017 13:00 0 0 45,16 20,6
23 20.10.2017 12:30 0 0 48,43 20,08
24 20.10.2017 12:00 0 0 52,85 18,62
25 20.10.2017 11:30 0 0 56,16 17,81
26 20.10.2017 11:00 0 0 60,72 17,01
27 20.10.2017 10:30 0 0 60,77 16,24
28 20.10.2017 10:00 2,1 0 65,28 14,57
29 20.10.2017 09:30 4,53 0 75,44 13,34
30 20.10.2017 09:00 10 0 84,26 12,66
31 20.10.2017 08:30 10 0 92,25 10,6
32 20.10.2017 08:00 10 0 93,54 9,32
33 20.10.2017 07:30 10 0 94,35 8,12
34 20.10.2017 07:00 10 0 94 6,39
35 20.10.2017 06:30 10 0 93,8 5,91
36 20.10.2017 06:00 10 0 94,17 6,37
37 20.10.2017 05:30 10 0 93,61 6,01
38 20.10.2017 05:00 10 0 93,31 5,97
39 20.10.2017 04:30 10 0 92,93 6,49
40 20.10.2017 04:00 10 0 92,66 7,36
41 20.10.2017 03:30 10 0 93,6 6,67
42 20.10.2017 03:00 10 0 93 6,29
43 20.10.2017 02:30 10 0 92,96 6,47
44 20.10.2017 02:00 10 0 92,62 6,68
45 20.10.2017 01:30 10 0 92,36 7,22
© 2011 Ministrstvo za kmetijstvo, gozdarstvo in prehrano. Vse pravice pridržane.